イースター島 の空港の天気 - METARとTAF

マタベリ国際空港 ( SCIP / IPC ) - チリ イースター島
飛行場実況気象(Metar)
観測時間08/22 10:00 EAT (08/22 16:00 UTC)
風向・風速西 4m/s
視程10km以上
天気現象
少しの雲 雲底高度 610m
全天の8割程度の雲 雲底高度 1520m
気温18℃
湿度56%
気圧1016hPa
METARSCIP 221600Z 27007KT 9999 FEW020 BKN050 18/09 Q1016 NOSIG
過去の天気等 Google飛行場航空写真 Wunderground天気予報

過去48時間のMETAR

飛行場予報(TAF)
発表時間: 8/22 04:10 EAT (8/22 10:10 UTC)
予報対象時間: 22日6時 EAT ~ 23日6時 EAT
風向・風速南西 4m/s
視程10km以上
全天の4割程度の雲 雲底高度 610m
22日7時 EAT ~ 22日9時 EAT に一時的に
風向・風速南西 7m/s
視程7000m
天気現象弱いしゅう雨
全天の4割程度の雲 雲底高度 610m
全天の8割程度の雲 雲底高度 1220m
22日10時 EAT ~ 22日12時 EAT に徐々に
風向・風速西 7m/s
22日14時 EAT ~ 22日18時 EAT に一時的に
風向・風速西 9m/s
視程7000m
天気現象弱いしゅう雨
全天の4割程度の雲 雲底高度 610m
全天の8割程度の雲 雲底高度 1220m
22日22時 EAT ~ 22日24時 EAT に徐々に
風向・風速北西 4m/s
全天の4割程度の雲 雲底高度 610m
TAF SCIP 221010Z 2212/2312 23008KT 9999 SCT020 TX20/2220Z TN16/2310Z
TEMPO 2213/2215 23013KT 7000 -SHRA SCT020 BKN040
BECMG 2216/2218 26013KT
TEMPO 2220/2300 26018KT 7000 -SHRA SCT020 BKN040
BECMG 2304/2306 32008KT SCT020